Terminal Aerodrome Forecast
Issued by NWS

Home | Current Version | Previous Version | Text Only | Print | Product List | Glossary On
Versions: 1 2 3 4 5 6 7 8 9 10 11 12 13 14 15 16 17 18 19 20 21 22 23 24 25 26 27
000
FTUS43 KGRB 221400 AAA
TAFATW
TAF AMD
KATW 221401Z 2214/2312 06005KT 6SM HZ SCT002 OVC012
      TEMPO 2214/2216 3SM BR BKN003
     FM221800 08006KT 6SM HZ OVC020
     FM222200 06004KT 6SM HZ SCT025 BKN040
     FM230200 VRB03KT 4SM BR BKN018
     FM230600 VRB03KT 2SM BR OVC007=

USA.gov is the U.S. government's official web portal to all federal, state and local government web resources and services.